Time;durP1;ratioP1;P1;durP2;ratioP2;P2;SDS_P1;SDS_P2;PMS_P1;PMS_P2;Temp;Humidity;BMP_temperature;BMP_pressure;BME280_temperature;BME280_humidity;BME280_pressure;Samples;Min_cycle;Max_cycle;Signal;HPM_P1;HPM_P2
2023/03/26 00:01:06;;;;;;;4.95;0.30;;;10.30;72.90;;;;;;4987938;28;88662;-71
2023/03/26 00:03:32;;;;;;;3.97;0.30;;;10.20;73.60;;;;;;4984276;28;87978;-71
2023/03/26 00:06:09;;;;;;;3.22;0.30;;;10.20;73.40;;;;;;4971714;28;87186;-71
2023/03/26 00:08:37;;;;;;;1.52;0.30;;;10.10;73.00;;;;;;4977958;28;86462;-71
2023/03/26 00:11:05;;;;;;;1.67;0.20;;;10.10;73.10;;;;;;4985810;28;88615;-70
2023/03/26 00:13:32;;;;;;;1.92;0.35;;;10.00;73.30;;;;;;4981960;28;87835;-71
2023/03/26 00:15:58;;;;;;;2.75;0.40;;;9.90;72.90;;;;;;4977344;28;88453;-70
2023/03/26 00:18:29;;;;;;;2.38;0.52;;;9.90;73.90;;;;;;4967284;28;87463;-71
2023/03/26 00:20:58;;;;;;;4.28;0.50;;;9.80;74.50;;;;;;4967902;28;88384;-71
2023/03/26 00:23:25;;;;;;;3.25;0.75;;;9.80;75.20;;;;;;4976905;28;87396;-70
2023/03/26 00:25:52;;;;;;;2.88;0.50;;;9.70;75.30;;;;;;4977275;28;87381;-72
2023/03/26 00:28:21;;;;;;;2.85;0.32;;;9.70;75.40;;;;;;4994556;28;86983;-71
2023/03/26 00:30:57;;;;;;;2.95;0.40;;;9.60;74.90;;;;;;4969913;28;88323;-71
2023/03/26 00:33:23;;;;;;;0.70;0.10;;;9.60;74.50;;;;;;4977024;28;86691;-71
2023/03/26 00:35:57;;;;;;;1.23;0.20;;;9.60;73.80;;;;;;4976231;28;87115;-72
2023/03/26 00:38:24;;;;;;;1.15;0.10;;;9.60;73.40;;;;;;4961723;28;87414;-71
2023/03/26 00:40:51;;;;;;;0.75;0.20;;;9.60;72.20;;;;;;4970502;28;88817;-72
2023/03/26 00:43:22;;;;;;;0.80;0.10;;;9.60;72.60;;;;;;4973868;28;88887;-70
2023/03/26 00:45:53;;;;;;;0.95;0.00;;;9.60;72.20;;;;;;4973721;28;87439;-71
2023/03/26 00:48:20;;;;;;;5.05;0.10;;;9.60;72.20;;;;;;4976994;28;87169;-72
2023/03/26 00:50:47;;;;;;;2.25;0.10;;;9.60;72.50;;;;;;4980699;28;88072;-72
2023/03/26 00:53:14;;;;;;;2.42;0.10;;;9.60;73.10;;;;;;4989280;28;88211;-71
2023/03/26 00:55:41;;;;;;;0.60;0.03;;;9.70;72.80;;;;;;4976101;28;87023;-70
2023/03/26 00:58:09;;;;;;;0.40;0.10;;;9.70;72.20;;;;;;4980980;28;86498;-70
2023/03/26 01:00:51;;;;;;;0.57;0.00;;;9.80;71.80;;;;;;4993758;28;88207;-70
2023/03/26 01:03:18;;;;;;;0.93;0.00;;;9.90;71.40;;;;;;4991263;28;87869;-71
2023/03/26 01:05:51;;;;;;;0.40;0.05;;;9.90;71.40;;;;;;4991583;28;88237;-72
2023/03/26 01:08:29;;;;;;;0.52;0.00;;;10.00;71.70;;;;;;4978103;28;87079;-72
2023/03/26 01:11:05;;;;;;;1.23;0.10;;;10.10;70.80;;;;;;4969194;28;88388;-73
2023/03/26 01:13:35;;;;;;;0.82;0.00;;;10.10;70.80;;;;;;4977297;28;87912;-72
2023/03/26 01:16:02;;;;;;;0.70;0.10;;;10.20;71.00;;;;;;4980434;28;87508;-72
2023/03/26 01:18:33;;;;;;;2.15;0.05;;;10.20;70.30;;;;;;4980802;28;87897;-72
2023/03/26 01:21:04;;;;;;;0.80;0.10;;;10.10;70.50;;;;;;4976683;28;88044;-73
2023/03/26 01:23:45;;;;;;;0.80;0.05;;;10.10;70.50;;;;;;4979556;28;87299;-73
2023/03/26 01:26:48;;;;;;;1.05;0.00;;;10.10;70.80;;;;;;4980284;28;89014;-72
2023/03/26 01:29:26;;;;;;;0.45;0.00;;;10.10;70.10;;;;;;4977409;28;87869;-72
2023/03/26 01:32:29;;;;;;;1.88;0.08;;;10.10;70.20;;;;;;4973902;28;89085;-72
2023/03/26 01:35:23;;;;;;;0.50;0.00;;;10.10;70.20;;;;;;4979084;28;90439;-71
2023/03/26 01:38:24;;;;;;;1.08;0.00;;;10.10;70.30;;;;;;4977988;28;87178;-71
2023/03/26 01:41:30;;;;;;;1.15;0.10;;;10.10;70.70;;;;;;4999283;28;87616;-71
2023/03/26 01:44:28;;;;;;;1.08;0.03;;;10.00;70.90;;;;;;4998224;28;88282;-71
2023/03/26 01:46:55;;;;;;;0.60;0.10;;;10.00;71.20;;;;;;4972569;28;87750;-71
2023/03/26 01:49:21;;;;;;;0.88;0.00;;;10.00;70.80;;;;;;4976569;28;88694;-72
2023/03/26 01:51:47;;;;;;;0.40;0.00;;;10.00;70.60;;;;;;4992665;28;86672;-72
2023/03/26 01:54:17;;;;;;;0.50;0.00;;;10.00;70.90;;;;;;4999146;28;87681;-71
2023/03/26 01:57:12;;;;;;;0.30;0.00;;;10.00;71.10;;;;;;4987295;28;87480;-72
2023/03/26 02:00:16;;;;;;;0.70;0.10;;;10.10;70.00;;;;;;4965764;28;88479;-72
2023/03/26 02:03:00;;;;;;;0.40;0.00;;;10.10;69.10;;;;;;4972659;28;87693;-73
2023/03/26 02:05:42;;;;;;;1.60;0.00;;;10.10;69.00;;;;;;4977323;28;87736;-72
2023/03/26 02:08:11;;;;;;;0.52;0.00;;;10.20;68.90;;;;;;4979147;28;87354;-71
2023/03/26 02:10:43;;;;;;;0.95;0.00;;;10.10;69.60;;;;;;4979047;28;87575;-71
2023/03/26 02:13:10;;;;;;;0.43;0.05;;;10.10;70.30;;;;;;4971347;28;87952;-71
2023/03/26 02:15:36;;;;;;;0.75;0.00;;;10.00;71.00;;;;;;4986575;28;88370;-71
2023/03/26 02:18:02;;;;;;;1.10;0.10;;;9.90;71.70;;;;;;4999034;28;86655;-72
2023/03/26 02:20:29;;;;;;;3.13;0.00;;;9.80;71.60;;;;;;4992888;28;87245;-72
2023/03/26 02:22:58;;;;;;;0.50;0.00;;;9.70;71.40;;;;;;4979340;28;87524;-72
2023/03/26 02:25:24;;;;;;;0.32;0.00;;;9.70;71.40;;;;;;4979635;28;88973;-73
2023/03/26 02:27:51;;;;;;;0.50;0.00;;;9.70;72.10;;;;;;4986646;28;89268;-71
2023/03/26 02:30:24;;;;;;;0.63;0.00;;;9.60;71.70;;;;;;4998967;28;87326;-71
2023/03/26 02:32:51;;;;;;;0.65;0.00;;;9.60;71.40;;;;;;4998577;28;87377;-71
2023/03/26 02:35:16;;;;;;;0.65;0.00;;;9.60;71.60;;;;;;4980145;28;89447;-71
2023/03/26 02:37:45;;;;;;;1.58;0.00;;;9.60;72.40;;;;;;4976593;28;87499;-72
2023/03/26 02:40:12;;;;;;;1.05;0.10;;;9.60;71.40;;;;;;4988847;28;87502;-72
2023/03/26 02:42:39;;;;;;;0.52;0.00;;;9.60;71.10;;;;;;4978856;28;86694;-72
2023/03/26 02:45:06;;;;;;;0.75;0.00;;;9.50;71.10;;;;;;4977386;28;88183;-72
2023/03/26 02:47:32;;;;;;;3.00;0.10;;;9.50;71.00;;;;;;4971663;28;87860;-71
2023/03/26 02:49:58;;;;;;;1.50;0.00;;;9.50;71.80;;;;;;4976257;28;88706;-72
2023/03/26 02:52:24;;;;;;;0.50;0.00;;;9.50;72.00;;;;;;4996015;28;87746;-72
2023/03/26 02:54:49;;;;;;;0.82;0.00;;;9.40;71.40;;;;;;4980565;28;87800;-70
2023/03/26 02:57:15;;;;;;;0.50;0.00;;;9.40;71.50;;;;;;4975155;28;87670;-72
2023/03/26 02:59:41;;;;;;;0.20;0.00;;;9.50;71.70;;;;;;4988714;28;87507;-72
2023/03/26 03:02:07;;;;;;;0.20;0.00;;;9.50;71.90;;;;;;4989024;28;88718;-72
2023/03/26 03:04:32;;;;;;;0.20;0.00;;;9.50;70.70;;;;;;4978459;28;87760;-72
2023/03/26 03:06:58;;;;;;;0.20;0.00;;;9.60;70.60;;;;;;4978270;28;87837;-71
2023/03/26 03:09:24;;;;;;;0.40;0.00;;;9.60;71.00;;;;;;4978645;28;87494;-71
2023/03/26 03:11:51;;;;;;;0.30;0.00;;;9.60;71.40;;;;;;4972814;28;87314;-71
2023/03/26 03:14:18;;;;;;;0.52;0.00;;;9.60;71.40;;;;;;4969057;28;89048;-71
2023/03/26 03:16:43;;;;;;;0.40;0.00;;;9.60;71.30;;;;;;4978820;28;89622;-71
2023/03/26 03:19:11;;;;;;;2.35;0.00;;;9.50;71.10;;;;;;4977863;28;87330;-71
2023/03/26 03:21:37;;;;;;;0.60;0.00;;;9.60;72.40;;;;;;4974502;28;86915;-71
2023/03/26 03:24:03;;;;;;;1.63;0.00;;;9.60;70.60;;;;;;4998103;28;88916;-72
2023/03/26 03:26:29;;;;;;;0.85;0.00;;;9.60;70.20;;;;;;4987058;28;89411;-72
2023/03/26 03:28:56;;;;;;;3.22;0.03;;;9.70;70.30;;;;;;4971355;28;89347;-72
2023/03/26 03:31:23;;;;;;;0.40;0.00;;;9.60;70.30;;;;;;4979965;28;86839;-72
2023/03/26 03:33:50;;;;;;;0.82;0.10;;;9.60;70.50;;;;;;4997863;28;88216;-72
2023/03/26 03:36:20;;;;;;;0.35;0.00;;;9.60;70.80;;;;;;4997411;28;87830;-72
2023/03/26 03:38:47;;;;;;;0.30;0.00;;;9.50;71.10;;;;;;4985046;28;87947;-73
2023/03/26 03:41:13;;;;;;;0.50;0.00;;;9.50;72.00;;;;;;4980939;28;87192;-73
2023/03/26 03:43:38;;;;;;;0.50;0.00;;;9.40;72.50;;;;;;4977613;28;88005;-73
2023/03/26 03:46:04;;;;;;;1.13;0.00;;;9.40;73.40;;;;;;4975840;28;87362;-72
2023/03/26 03:48:30;;;;;;;1.27;0.20;;;9.30;74.40;;;;;;4977189;28;87354;-72
2023/03/26 03:50:56;;;;;;;0.32;0.00;;;9.20;73.00;;;;;;4982349;28;88510;-71
2023/03/26 03:53:25;;;;;;;1.65;0.10;;;9.20;73.40;;;;;;4972365;28;88143;-71
2023/03/26 03:55:54;;;;;;;0.35;0.00;;;9.20;73.40;;;;;;4976339;28;88612;-71
2023/03/26 03:58:22;;;;;;;0.73;0.00;;;9.20;73.70;;;;;;4978020;28;87707;-72
2023/03/26 04:00:49;;;;;;;0.40;0.00;;;9.20;73.70;;;;;;4978507;28;87555;-71
2023/03/26 04:03:16;;;;;;;0.68;0.00;;;9.10;72.10;;;;;;4966760;28;88740;-70
2023/03/26 04:05:48;;;;;;;0.63;0.00;;;9.20;72.30;;;;;;4972083;28;88445;-70
2023/03/26 04:08:17;;;;;;;0.20;0.00;;;9.20;72.20;;;;;;4977962;28;87546;-70
2023/03/26 04:10:43;;;;;;;0.60;0.00;;;9.20;71.90;;;;;;4983459;28;87550;-71
2023/03/26 04:13:11;;;;;;;0.55;0.00;;;9.20;71.70;;;;;;4985234;28;88095;-69
2023/03/26 04:15:37;;;;;;;0.70;0.10;;;9.20;71.00;;;;;;4977681;28;88446;-70
2023/03/26 04:18:03;;;;;;;0.50;0.00;;;9.20;71.20;;;;;;4986705;28;87740;-69
2023/03/26 04:20:28;;;;;;;0.52;0.00;;;9.20;71.60;;;;;;4978105;28;86581;-72
2023/03/26 04:22:54;;;;;;;0.38;0.00;;;9.20;72.10;;;;;;4975833;28;88016;-73
2023/03/26 04:25:20;;;;;;;0.38;0.00;;;9.10;71.90;;;;;;5000964;28;88196;-72
2023/03/26 04:27:46;;;;;;;1.17;0.00;;;9.20;72.00;;;;;;4989689;28;88514;-72
2023/03/26 04:30:19;;;;;;;0.45;0.00;;;9.10;71.60;;;;;;4988503;28;87422;-72
2023/03/26 04:32:45;;;;;;;0.60;0.00;;;9.10;72.00;;;;;;4980564;28;88157;-72
2023/03/26 04:35:15;;;;;;;0.40;0.00;;;9.10;71.90;;;;;;4980657;28;88039;-72
2023/03/26 04:37:43;;;;;;;0.50;0.00;;;9.10;71.90;;;;;;4974863;28;87732;-72
2023/03/26 04:40:14;;;;;;;1.23;0.35;;;9.10;72.30;;;;;;5000403;28;87137;-72
2023/03/26 04:42:44;;;;;;;0.50;0.03;;;9.00;72.40;;;;;;4986135;28;88219;-74
2023/03/26 04:45:11;;;;;;;3.03;0.00;;;9.00;72.40;;;;;;4959641;28;88375;-72
2023/03/26 04:47:38;;;;;;;0.45;0.00;;;9.00;73.10;;;;;;4980448;28;87343;-71
2023/03/26 04:50:05;;;;;;;2.92;0.00;;;9.00;73.10;;;;;;4980064;28;87354;-69
2023/03/26 04:52:31;;;;;;;1.67;0.10;;;9.00;73.20;;;;;;4997604;28;89007;-72
2023/03/26 04:54:57;;;;;;;0.20;0.00;;;9.00;73.40;;;;;;4975556;28;87443;-73
2023/03/26 04:57:29;;;;;;;0.22;0.00;;;9.00;73.10;;;;;;4963866;28;87771;-69
2023/03/26 04:59:55;;;;;;;0.40;0.00;;;8.90;72.90;;;;;;4981147;28;87152;-72
2023/03/26 05:02:20;;;;;;;0.80;0.05;;;8.90;73.10;;;;;;4984619;28;88504;-71
2023/03/26 05:04:48;;;;;;;0.40;0.00;;;8.90;73.70;;;;;;5000228;28;87362;-71
2023/03/26 05:07:18;;;;;;;1.02;0.00;;;8.80;73.30;;;;;;4996291;28;88586;-71
2023/03/26 05:09:44;;;;;;;0.40;0.00;;;8.70;73.80;;;;;;4980686;28;86667;-69
2023/03/26 05:12:10;;;;;;;2.47;0.10;;;8.70;73.70;;;;;;4964362;28;87739;-69
2023/03/26 05:14:35;;;;;;;1.65;0.00;;;8.70;73.30;;;;;;4969330;28;87856;-69
2023/03/26 05:17:09;;;;;;;1.05;0.00;;;8.70;73.60;;;;;;4982203;28;88037;-69
2023/03/26 05:19:35;;;;;;;0.65;0.00;;;8.70;73.70;;;;;;4979883;28;87387;-69
2023/03/26 05:22:01;;;;;;;1.67;0.20;;;8.70;75.40;;;;;;4962173;28;88205;-72
2023/03/26 05:24:27;;;;;;;0.70;0.00;;;8.70;74.00;;;;;;4962137;28;88167;-71
2023/03/26 05:26:54;;;;;;;0.63;0.05;;;8.70;73.90;;;;;;4969489;28;87603;-71
2023/03/26 05:29:21;;;;;;;0.38;0.00;;;8.70;73.80;;;;;;4964904;28;87469;-71
2023/03/26 05:31:47;;;;;;;1.30;0.03;;;8.70;74.10;;;;;;4985973;28;87731;-72
2023/03/26 05:34:13;;;;;;;0.30;0.00;;;8.70;74.10;;;;;;4961680;28;88224;-71
2023/03/26 05:36:39;;;;;;;0.90;0.00;;;8.70;73.80;;;;;;4978169;28;87322;-71
2023/03/26 05:39:05;;;;;;;3.90;0.00;;;8.70;74.40;;;;;;4986948;28;86901;-71
2023/03/26 05:41:31;;;;;;;0.30;0.00;;;8.70;73.80;;;;;;4968097;28;88848;-72
2023/03/26 05:43:56;;;;;;;0.80;0.03;;;8.70;73.80;;;;;;4966372;28;88278;-72
2023/03/26 05:46:22;;;;;;;0.30;0.00;;;8.70;74.00;;;;;;4965930;28;87128;-72
2023/03/26 05:48:48;;;;;;;4.65;0.00;;;8.70;74.30;;;;;;4967684;28;87958;-71
2023/03/26 05:51:14;;;;;;;0.55;0.00;;;8.70;73.90;;;;;;4963267;28;88563;-71
2023/03/26 05:53:41;;;;;;;1.08;0.00;;;8.70;73.60;;;;;;4967001;28;87864;-72
2023/03/26 05:56:07;;;;;;;1.52;0.03;;;8.80;74.10;;;;;;4962598;28;89020;-71
2023/03/26 05:58:34;;;;;;;0.35;0.00;;;8.80;73.50;;;;;;4970381;28;88122;-71
2023/03/26 06:01:15;;;;;;;2.13;0.05;;;8.80;73.80;;;;;;4966750;28;87448;-71
2023/03/26 06:03:41;;;;;;;0.30;0.00;;;8.80;73.00;;;;;;4967790;28;87908;-71
2023/03/26 06:06:09;;;;;;;0.50;0.00;;;8.80;72.80;;;;;;4962701;28;88822;-68
2023/03/26 06:08:35;;;;;;;0.50;0.00;;;8.80;72.80;;;;;;4980447;28;87331;-70
2023/03/26 06:11:06;;;;;;;1.20;0.00;;;8.80;72.80;;;;;;4969004;28;87653;-70
2023/03/26 06:13:33;;;;;;;0.65;0.03;;;8.80;73.20;;;;;;4967082;28;88628;-69
2023/03/26 06:15:58;;;;;;;0.60;0.00;;;8.80;73.00;;;;;;4967368;28;89790;-71
2023/03/26 06:18:25;;;;;;;2.35;0.00;;;8.80;73.00;;;;;;4964207;28;88657;-72
2023/03/26 06:20:51;;;;;;;0.38;0.00;;;8.90;72.70;;;;;;4966323;28;92209;-70
2023/03/26 06:23:18;;;;;;;1.08;0.03;;;9.00;72.30;;;;;;4963780;28;89427;-72
2023/03/26 06:25:44;;;;;;;0.90;0.08;;;9.10;71.50;;;;;;4964945;28;89004;-72
2023/03/26 06:28:11;;;;;;;0.20;0.00;;;9.20;71.00;;;;;;4968861;28;87568;-71
2023/03/26 06:30:37;;;;;;;0.77;0.10;;;9.30;70.00;;;;;;4970803;28;89550;-72
2023/03/26 06:33:03;;;;;;;0.77;0.00;;;9.40;69.70;;;;;;4970649;28;89393;-69
2023/03/26 06:35:29;;;;;;;0.50;0.00;;;9.40;69.50;;;;;;4964526;28;87579;-70
2023/03/26 06:37:55;;;;;;;1.13;0.00;;;9.50;69.60;;;;;;4964652;28;87901;-71
2023/03/26 06:40:21;;;;;;;0.80;0.00;;;9.60;69.10;;;;;;4959308;28;89816;-71
2023/03/26 06:42:47;;;;;;;2.55;0.05;;;9.60;69.40;;;;;;4961079;28;87787;-70
2023/03/26 06:45:12;;;;;;;0.40;0.00;;;9.70;69.70;;;;;;4971461;28;87527;-71
2023/03/26 06:47:38;;;;;;;0.45;0.00;;;9.80;69.60;;;;;;4980226;28;86363;-73
2023/03/26 06:50:04;;;;;;;0.30;0.00;;;9.80;69.20;;;;;;4976509;28;87606;-71
2023/03/26 06:52:30;;;;;;;1.38;0.05;;;9.70;70.20;;;;;;4974140;28;87803;-72
2023/03/26 06:54:56;;;;;;;0.40;0.10;;;9.60;70.60;;;;;;4971160;28;88941;-72
2023/03/26 06:57:22;;;;;;;0.85;0.10;;;9.60;71.10;;;;;;4961731;28;87182;-71
2023/03/26 06:59:47;;;;;;;0.32;0.00;;;9.60;71.20;;;;;;4965259;28;89402;-72
2023/03/26 07:02:13;;;;;;;1.38;0.00;;;9.60;71.30;;;;;;4972094;28;87711;-71
2023/03/26 07:04:39;;;;;;;0.55;0.10;;;9.70;71.70;;;;;;4965818;28;87680;-69
2023/03/26 07:07:05;;;;;;;1.17;0.10;;;9.80;70.80;;;;;;4963163;28;87919;-72
2023/03/26 07:09:30;;;;;;;0.93;0.10;;;9.80;71.20;;;;;;4963698;28;89050;-69
2023/03/26 07:11:57;;;;;;;1.58;0.20;;;9.80;71.90;;;;;;4967269;28;88085;-72
2023/03/26 07:14:23;;;;;;;0.98;0.10;;;9.70;72.00;;;;;;4968150;28;87408;-72
2023/03/26 07:16:50;;;;;;;0.50;0.00;;;9.80;71.50;;;;;;4960976;28;87714;-71
2023/03/26 07:19:16;;;;;;;0.85;0.10;;;9.80;70.20;;;;;;4973082;28;89196;-68
2023/03/26 07:21:42;;;;;;;1.15;0.10;;;9.80;70.80;;;;;;4957643;28;88897;-71
2023/03/26 07:24:11;;;;;;;1.13;0.10;;;9.80;70.60;;;;;;4971192;28;87536;-72
2023/03/26 07:27:02;;;;;;;2.35;0.20;;;9.70;71.50;;;;;;4959936;28;87396;-72
2023/03/26 07:29:53;;;;;;;1.25;0.20;;;9.70;72.60;;;;;;4980134;28;92264;-70
2023/03/26 07:32:31;;;;;;;0.98;0.10;;;9.60;72.20;;;;;;4968883;28;88774;-70
2023/03/26 07:35:06;;;;;;;1.98;0.10;;;9.60;73.70;;;;;;4969654;28;87555;-71
2023/03/26 07:37:32;;;;;;;2.40;0.10;;;9.50;75.60;;;;;;4968081;28;87002;-73
2023/03/26 07:40:17;;;;;;;1.50;0.20;;;9.50;75.30;;;;;;4959364;28;87620;-70
2023/03/26 07:42:55;;;;;;;1.30;0.20;;;9.50;75.80;;;;;;4962602;28;88000;-72
2023/03/26 07:45:38;;;;;;;2.15;0.20;;;9.50;76.60;;;;;;4971652;28;88725;-71
2023/03/26 07:48:16;;;;;;;2.08;0.30;;;9.50;76.70;;;;;;4977556;28;86928;-70
2023/03/26 07:50:42;;;;;;;2.55;0.22;;;9.60;77.30;;;;;;4972442;28;87697;-70
2023/03/26 07:53:09;;;;;;;1.23;0.10;;;9.60;78.70;;;;;;4971669;28;88393;-70
2023/03/26 07:55:51;;;;;;;1.60;0.13;;;9.50;77.80;;;;;;4964991;28;87407;-71
2023/03/26 07:58:39;;;;;;;1.48;0.10;;;9.40;77.70;;;;;;4982472;28;87647;-71
2023/03/26 08:01:22;;;;;;;1.98;0.25;;;9.30;78.60;;;;;;4971090;28;87460;-70
2023/03/26 08:03:54;;;;;;;;;;;9.40;79.40;;;;;;4991681;28;87513;-70
2023/03/26 08:06:32;;;;;;;4.00;0.10;;;9.40;80.30;;;;;;4973556;28;87282;-70
2023/03/26 08:09:37;;;;;;;2.88;0.20;;;9.40;79.00;;;;;;4977293;28;88016;-71
2023/03/26 08:12:18;;;;;;;3.80;0.20;;;9.40;80.20;;;;;;4977162;28;88639;-71
2023/03/26 08:14:53;;;;;;;1.50;0.13;;;9.40;78.80;;;;;;4989325;28;88831;-70
2023/03/26 08:17:33;;;;;;;2.83;0.10;;;9.40;79.60;;;;;;4978299;28;87481;-71
2023/03/26 08:20:40;;;;;;;2.55;0.10;;;9.40;81.50;;;;;;4985132;28;87568;-70
2023/03/26 08:23:24;;;;;;;1.75;0.10;;;9.40;81.20;;;;;;4977674;28;88148;-71
2023/03/26 08:26:01;;;;;;;1.48;0.10;;;9.40;79.60;;;;;;4980449;28;87861;-70
2023/03/26 08:28:45;;;;;;;1.48;0.10;;;9.30;79.60;;;;;;4970700;28;87501;-72
2023/03/26 08:31:12;;;;;;;3.28;0.10;;;9.20;80.90;;;;;;4989491;28;86786;-70
2023/03/26 08:33:40;;;;;;;1.45;0.10;;;9.10;80.20;;;;;;4973701;28;88214;-70
2023/03/26 08:36:07;;;;;;;1.65;0.20;;;9.10;82.20;;;;;;4980897;28;87796;-71
2023/03/26 08:38:33;;;;;;;3.97;0.60;;;9.10;82.60;;;;;;4968174;28;88429;-70
2023/03/26 08:41:10;;;;;;;1.55;0.20;;;9.10;83.40;;;;;;4976849;28;88732;-71
2023/03/26 08:44:13;;;;;;;1.50;0.10;;;9.00;83.00;;;;;;4972463;28;88161;-71
2023/03/26 08:47:09;;;;;;;4.78;0.20;;;9.00;83.00;;;;;;4969902;28;91617;-71
2023/03/26 08:50:02;;;;;;;6.25;0.20;;;8.90;83.40;;;;;;4980072;28;88495;-70
2023/03/26 08:53:06;;;;;;;1.90;0.30;;;8.80;84.50;;;;;;4972100;28;87447;-71
2023/03/26 08:55:46;;;;;;;1.70;0.20;;;8.70;86.40;;;;;;4972663;28;87715;-72
2023/03/26 08:58:21;;;;;;;3.33;0.25;;;8.70;85.20;;;;;;4971131;28;87448;-71
2023/03/26 09:01:01;;;;;;;3.58;0.30;;;8.60;85.80;;;;;;4976447;28;87492;-71
2023/03/26 09:03:40;;;;;;;1.83;0.30;;;8.60;85.10;;;;;;4973100;28;87538;-70
2023/03/26 09:06:14;;;;;;;1.92;0.20;;;8.60;87.40;;;;;;4972708;28;89236;-70
2023/03/26 09:08:58;;;;;;;2.22;0.20;;;8.70;86.50;;;;;;4972432;28;89371;-70
2023/03/26 09:11:32;;;;;;;5.07;0.20;;;8.60;87.60;;;;;;4978722;28;87369;-70
2023/03/26 09:14:16;;;;;;;1.83;0.15;;;8.70;87.60;;;;;;4971152;28;87450;-70
2023/03/26 09:16:42;;;;;;;5.95;2.85;;;8.70;86.90;;;;;;4977272;28;88156;-70
2023/03/26 09:19:36;;;;;;;5.25;0.20;;;8.70;86.70;;;;;;4969160;28;87876;-70
2023/03/26 09:22:35;;;;;;;8.52;2.50;;;8.70;87.20;;;;;;4974072;28;87250;-71
2023/03/26 09:25:12;;;;;;;2.67;0.40;;;8.80;86.50;;;;;;4967660;28;87860;-70
2023/03/26 09:27:50;;;;;;;2.05;0.10;;;8.90;85.50;;;;;;4979372;28;88248;-70
2023/03/26 09:30:37;;;;;;;1.85;0.13;;;8.90;84.50;;;;;;4975749;28;90845;-71
2023/03/26 09:33:41;;;;;;;1.27;0.10;;;9.00;85.20;;;;;;4971335;28;88153;-69
2023/03/26 09:36:12;;;;;;;4.35;0.10;;;9.20;85.00;;;;;;4966335;28;87671;-70
2023/03/26 09:39:02;;;;;;;1.65;0.30;;;9.30;84.40;;;;;;4969936;28;88133;-69
2023/03/26 09:41:30;;;;;;;1.77;0.10;;;9.60;87.10;;;;;;4971156;28;87543;-69
2023/03/26 09:44:14;;;;;;;1.17;0.10;;;9.60;82.30;;;;;;4968421;28;88118;-69
2023/03/26 09:46:40;;;;;;;0.95;0.00;;;9.60;81.50;;;;;;4969125;28;87095;-69
2023/03/26 09:49:23;;;;;;;1.38;0.10;;;9.70;81.70;;;;;;4972891;28;92753;-70
2023/03/26 09:51:57;;;;;;;1.23;0.03;;;9.70;81.20;;;;;;4971362;28;92275;-70
2023/03/26 09:54:43;;;;;;;4.45;0.22;;;9.80;80.50;;;;;;4980072;28;92641;-70
2023/03/26 09:57:27;;;;;;;3.78;0.10;;;9.80;80.40;;;;;;4977262;28;92557;-69
2023/03/26 10:00:05;;;;;;;1.13;0.10;;;10.00;79.40;;;;;;4974339;28;93677;-70
2023/03/26 10:02:43;;;;;;;1.33;0.20;;;10.10;79.80;;;;;;4968903;28;94694;-71
2023/03/26 10:05:46;;;;;;;3.15;0.20;;;10.30;79.40;;;;;;4961907;28;92762;-70
2023/03/26 10:08:59;;;;;;;1.05;0.10;;;10.90;78.90;;;;;;4969834;28;92471;-70
2023/03/26 10:11:43;;;;;;;3.90;0.50;;;11.90;72.60;;;;;;4965975;28;93608;-70
2023/03/26 10:14:14;;;;;;;1.75;0.10;;;12.10;70.70;;;;;;4962472;28;92862;-70
2023/03/26 10:16:42;;;;;;;1.00;0.10;;;12.30;72.80;;;;;;4964505;28;92302;-70
2023/03/26 10:19:27;;;;;;;0.75;0.00;;;12.30;72.40;;;;;;4978033;28;91829;-69
2023/03/26 10:22:18;;;;;;;0.82;0.10;;;12.00;70.90;;;;;;4971290;28;93094;-70
2023/03/26 10:25:27;;;;;;;1.10;0.20;;;11.70;71.30;;;;;;4982550;28;92765;-69
2023/03/26 10:27:53;;;;;;;;;;;11.60;72.90;;;;;;4977075;28;93978;-71
2023/03/26 10:30:28;;;;;;;3.53;0.10;;;11.40;73.30;;;;;;4983457;28;92475;-70
2023/03/26 10:33:27;;;;;;;1.20;0.20;;;11.50;73.60;;;;;;4975174;28;93742;-70
2023/03/26 10:35:59;;;;;;;1.40;0.10;;;11.50;73.90;;;;;;4967928;28;93898;-70
2023/03/26 10:38:38;;;;;;;0.75;0.00;;;11.50;75.20;;;;;;4970363;28;92372;-69
2023/03/26 10:41:22;;;;;;;4.10;0.20;;;11.40;74.40;;;;;;4964147;28;94500;-69
2023/03/26 10:44:32;;;;;;;2.47;0.28;;;11.30;78.40;;;;;;4964460;28;92758;-69
2023/03/26 10:47:13;;;;;;;1.75;0.00;;;11.00;79.60;;;;;;4986238;28;92912;-69
2023/03/26 10:49:48;;;;;;;0.90;0.10;;;10.90;79.50;;;;;;4974353;28;92134;-69
2023/03/26 10:52:19;;;;;;;0.88;0.05;;;10.80;81.10;;;;;;4962017;28;94990;-71
2023/03/26 10:55:01;;;;;;;1.17;0.17;;;10.80;81.90;;;;;;4971278;28;94164;-69
2023/03/26 10:57:36;;;;;;;2.65;0.57;;;10.90;81.80;;;;;;4981252;28;94546;-69
2023/03/26 11:00:11;;;;;;;3.25;0.20;;;11.00;81.80;;;;;;4986937;28;92477;-71
2023/03/26 11:02:58;;;;;;;3.88;0.15;;;11.20;83.10;;;;;;4976760;28;92565;-71
2023/03/26 11:06:01;;;;;;;2.97;0.50;;;11.40;82.60;;;;;;4975767;28;93288;-71
2023/03/26 11:08:50;;;;;;;5.80;0.50;;;11.50;83.30;;;;;;4971102;28;94919;-71
2023/03/26 11:11:24;;;;;;;3.92;0.50;;;11.60;82.20;;;;;;4976460;28;93293;-70
2023/03/26 11:14:15;;;;;;;3.95;0.20;;;11.60;80.90;;;;;;4961877;28;91959;-71
2023/03/26 11:17:02;;;;;;;0.93;0.10;;;11.70;81.50;;;;;;4963106;28;93393;-71
2023/03/26 11:19:47;;;;;;;2.63;0.20;;;11.70;82.80;;;;;;4968027;28;93995;-71
2023/03/26 11:22:27;;;;;;;0.52;0.03;;;11.70;79.40;;;;;;4966111;28;93516;-71
2023/03/26 11:25:32;;;;;;;0.98;0.10;;;11.60;79.70;;;;;;4965319;28;92689;-70
2023/03/26 11:28:22;;;;;;;8.25;1.02;;;11.80;78.80;;;;;;4960149;28;93671;-72
2023/03/26 11:30:54;;;;;;;4.30;1.67;;;11.90;80.00;;;;;;4965881;28;93756;-71
2023/03/26 11:33:25;;;;;;;4.40;1.73;;;11.90;80.40;;;;;;4959849;28;92128;-71
2023/03/26 11:35:57;;;;;;;4.38;1.33;;;11.90;79.80;;;;;;4968950;28;93011;-71
2023/03/26 11:38:36;;;;;;;2.30;0.50;;;11.90;79.10;;;;;;4982686;28;93211;-71
2023/03/26 11:41:04;;;;;;;3.33;1.88;;;11.90;78.30;;;;;;4971991;28;92210;-71
2023/03/26 11:43:34;;;;;;;4.35;0.93;;;12.00;77.80;;;;;;4974925;28;92295;-71
2023/03/26 11:46:04;;;;;;;2.42;0.40;;;12.10;78.10;;;;;;4971898;28;93676;-71
2023/03/26 11:48:32;;;;;;;1.20;0.10;;;12.20;78.50;;;;;;4965034;28;94150;-71
2023/03/26 11:51:06;;;;;;;2.25;0.03;;;12.30;76.20;;;;;;4961492;28;93852;-72
2023/03/26 11:53:37;;;;;;;1.85;0.03;;;12.30;74.10;;;;;;4967456;28;92657;-71
2023/03/26 11:56:17;;;;;;;7.25;0.68;;;12.40;75.10;;;;;;4964519;28;93039;-72
2023/03/26 11:58:53;;;;;;;1.00;0.10;;;12.50;75.80;;;;;;4967595;28;96176;-70
2023/03/26 12:01:30;;;;;;;0.47;0.10;;;12.50;74.40;;;;;;4977554;28;93138;-71
2023/03/26 12:04:02;;;;;;;2.22;0.30;;;12.60;75.90;;;;;;4963608;28;92334;-70
2023/03/26 12:06:28;;;;;;;2.17;0.52;;;13.00;74.90;;;;;;4975769;28;91806;-71
2023/03/26 12:08:54;;;;;;;1.33;0.10;;;13.20;73.80;;;;;;4969088;28;93275;-71
2023/03/26 12:11:28;;;;;;;2.60;0.20;;;13.30;72.80;;;;;;4971739;28;92707;-71
2023/03/26 12:14:02;;;;;;;3.55;0.28;;;13.30;72.60;;;;;;4967075;28;93473;-71
2023/03/26 12:16:28;;;;;;;2.78;0.47;;;13.30;74.70;;;;;;4972314;28;92501;-72
2023/03/26 12:19:06;;;;;;;1.35;0.32;;;13.30;75.60;;;;;;4966051;28;93124;-71
2023/03/26 12:21:51;;;;;;;3.85;0.55;;;13.30;76.00;;;;;;4962973;28;92921;-71
2023/03/26 12:24:28;;;;;;;2.08;0.45;;;13.30;77.10;;;;;;4972623;28;94685;-71
2023/03/26 12:27:11;;;;;;;3.65;0.40;;;13.40;76.80;;;;;;4968502;28;93079;-71
2023/03/26 12:29:37;;;;;;;14.43;3.70;;;13.50;76.00;;;;;;4963110;28;94076;-70
2023/03/26 12:32:12;;;;;;;3.33;0.47;;;13.70;75.60;;;;;;4970476;28;92320;-71
2023/03/26 12:34:39;;;;;;;2.03;0.20;;;13.70;75.10;;;;;;4972205;28;93742;-71
2023/03/26 12:37:06;;;;;;;4.60;0.20;;;13.50;73.50;;;;;;4968310;28;93694;-72
2023/03/26 12:39:37;;;;;;;3.45;0.95;;;13.50;73.10;;;;;;4965590;28;95342;-71
2023/03/26 12:42:10;;;;;;;1.65;0.20;;;13.60;73.00;;;;;;4960310;28;96231;-72
2023/03/26 12:44:49;;;;;;;8.63;3.53;;;13.60;70.90;;;;;;4971815;28;92859;-72
2023/03/26 12:47:23;;;;;;;15.25;6.65;;;13.70;71.20;;;;;;4968571;28;92441;-71
2023/03/26 12:49:51;;;;;;;2.45;0.43;;;13.80;72.50;;;;;;4960705;28;92776;-71
2023/03/26 12:52:33;;;;;;;2.10;0.50;;;14.10;72.00;;;;;;4974332;28;92557;-71
2023/03/26 12:55:20;;;;;;;1.00;0.20;;;14.20;70.60;;;;;;4962571;28;94286;-68
2023/03/26 12:58:15;;;;;;;1.20;0.20;;;14.20;70.40;;;;;;4964842;28;92057;-71
2023/03/26 13:01:08;;;;;;;1.10;0.10;;;14.10;68.30;;;;;;4967771;28;93921;-69
2023/03/26 13:03:50;;;;;;;1.35;0.10;;;14.00;69.80;;;;;;4978533;28;94982;-68
2023/03/26 13:07:00;;;;;;;3.42;1.40;;;14.10;69.90;;;;;;4969591;28;93111;-70
2023/03/26 13:10:04;;;;;;;1.27;0.10;;;14.00;70.20;;;;;;4965790;28;92188;-70
2023/03/26 13:12:39;;;;;;;1.88;0.30;;;13.90;67.70;;;;;;4968098;28;92526;-73
2023/03/26 13:15:33;;;;;;;0.80;0.10;;;13.90;68.70;;;;;;4976501;28;93909;-71
2023/03/26 13:18:28;;;;;;;1.65;0.10;;;13.90;68.30;;;;;;4968828;28;92521;-72
2023/03/26 13:20:53;;;;;;;2.65;0.57;;;13.90;67.60;;;;;;4978777;28;92212;-70
2023/03/26 13:23:44;;;;;;;3.90;0.98;;;13.80;67.90;;;;;;4978778;28;93456;-70
2023/03/26 13:26:17;;;;;;;3.83;0.60;;;13.70;68.20;;;;;;4976302;28;92896;-71
2023/03/26 13:29:03;;;;;;;1.65;0.60;;;13.60;69.40;;;;;;4980652;28;92534;-70